LiveATC.Net - Listen to live air traffic control over the Internet!


ICAO: LHPR  IATA: QGY   Airport: Gyor-Per International Airport
City: Gyor
Country: Hungary   Continent: Europe
LHPR METAR Weather: LHPR 231745Z AUTO 10006KT 3500 BR NCD 03/03 Q1018 RMK YLO
LHPR Flight Activity (FlightAware)
LHPR Webcam:  (Airport Webcams) 
LHPR Info/AFIS
Feed Status: UP   Listeners: 2
Listen right in your browser - requires Flash (in browser, requires Flash)
Click here to listen with your own player (launches your MP3 player)
LHPR Info/AFIS Audio Archives
FacilityFrequency
Gyor AFIS129.900


NOTICE

Unauthorized use prohibited. See LiveATC.net Terms of Service


Find LiveATC Audio Streams


Airport/ARTCC Code

Frequency Search
(e.g., 124.400, 128.75)
Site-wide search
 


Browse LiveATC Feeds
LiveATC Coverage Map
Top 50 LiveATC Feeds
Bad Weather Areas

LiveATC FAQ
Offer a LiveATC Feed
Contact LiveATC.net
Press Inquiries

LiveATC on iPhone
LiveATC on Android

Windows Phone
Windows 8/10

LiveATC Mobile
(Mobile browser)

ATC Audio Archives
Interesting Recordings

LiveATC Forums


Home Page
About LiveATC.net
Make a Donation
Terms of Use
Privacy Policy

Canadian Air Freqs

AIRMETs/SIGMETs

FAA Airport Status
Nat'l Airspace Status
Arrival Demand Charts


Server Software By:
Icecast.org
Liquidsoap